Payne, OH (45880)

8:59 PM EDT on October 24, 2014 (GMT -0400)
Moore Farms, Edgerton, In | Change Station
CLOSE
Current Station
Personal Weather Station
Location: Woodburn, IN
Elevation: 751 ft
Nearby Weather Stations

Elev 751 ft 41.06 °N, 84.80 °W | Updated 4 minutes ago

Mostly Cloudy
Mostly Cloudy
51.3 °F
Feels Like 51.3 °F
N
4.0
Wind Variable Wind from SW

Today
High -- | Low -- °F
--% Chance of Precip.
Yesterday
High -- | Low -- °F
Precip. -- in
8:00 AM 6:45 PM
New Moon, 1% visible
Pressure 30.00 in
Visibility 10.0 miles
Clouds Scattered Clouds 3600 ft
Dew Point 48 °F
Humidity 88%
Rainfall 0.00 in
Snow Depth Not available.
UV 0 out of 12
Pollen 1.10 out of 12
Air Quality Not available.
Flu Activity Sporadic
METAR KGWB 250035Z AUTO 00000KT 10SM SCT036 11/08 A3000 RMK AO2

More Conditions Fewer Conditions

Pressure 30.00 in
Visibility 10.0 miles
Clouds Scattered Clouds 3600 ft
Dew Point 48 °F
Humidity 88%
Rainfall 0.00 in
Snow Depth Not available.
UV 0 out of 12
Pollen 1.10 out of 12
Air Quality Not available.
Flu Activity Sporadic
METAR KGWB 250035Z AUTO 00000KT 10SM SCT036 11/08 A3000 RMK AO2

More Conditions Fewer Conditions

10-Day Weather Forecast

Almanac

Astronomy

Oct. 24, 2014 Rise Set
Actual Time 8:00 AM EDT 6:45 PM EDT
Civil Twilight 7:32 AM EDT 7:13 PM EDT
Nautical Twilight 7:00 AM EDT 7:45 PM EDT
Astronomical Twilight 6:28 AM EDT 8:17 PM EDT
Moon 8:39 AM EDT (10/24) 7:24 PM EDT (10/24)
Length of Visible Light 11h 40m
Length of Day
10h 44m
Tomorrow will be 2m 32s shorter.
New Moon, 1% of the Moon is Illuminated
Today
New Moon
Oct 30
First Quarter
Nov 6
Full
Nov 14
Last Quarter
Nov 22
New

Today's Extremes

State Highs State Lows

Community

WunderPhotos

Upload Photos

1,764,735 photos uploaded!

WunderBlogs® & News

Nearby

Snow Depth

Station Depth Elevation
No new snow has been reported.

Earthquake Activity

City Distance Mag. Time & Date
No recent earthquake activity has been reported nearby.
Minimum magnitude displayed is 2.5.

Coastal Water Temperatures

Place Temperature
No Stations Reporting

Nearby Weather Stations